Terminal Aerodrome Forecast
Issued by NWS

Home | Current Version | Previous Version | Text Only | Print | Product List | Glossary On
Versions: 1 2 3 4 5 6 7 8 9 10 11 12 13 14 15 16 17 18 19 20 21 22
000
FTUS43 KILX 272337
TAFDEC
TAF
KDEC 272337Z 2800/2824 22007KT P6SM BKN030
      TEMPO 2800/2803 SCT030
     FM280300 21005KT P6SM SCT035 BKN100
     FM281100 13012KT P6SM VCSH OVC035
     FM281600 13012KT P6SM -SHRA OVC030
     FM282100 15013KT P6SM OVC025=

USA.gov is the U.S. government's official web portal to all federal, state and local government web resources and services.